createdAt,value
2022-12-28T00:01:28.594Z,9.55
2022-12-28T00:03:56.071Z,9.63
2022-12-28T00:06:25.142Z,7.80
2022-12-28T00:08:57.387Z,7.65
2022-12-28T00:11:30.458Z,8.30
2022-12-28T00:14:02.064Z,7.22
2022-12-28T00:16:34.319Z,7.78
2022-12-28T00:19:03.674Z,8.48
2022-12-28T00:21:31.417Z,8.32
2022-12-28T00:23:59.804Z,6.90
2022-12-28T00:26:29.074Z,5.85
2022-12-28T00:29:03.548Z,6.32
2022-12-28T00:31:32.046Z,5.80
2022-12-28T00:33:58.836Z,4.63
2022-12-28T00:37:09.901Z,5.80
2022-12-28T00:39:12.749Z,5.97
2022-12-28T00:41:39.482Z,6.13
2022-12-28T00:44:08.444Z,5.28
2022-12-28T00:46:35.386Z,5.93
2022-12-28T00:49:02.092Z,5.45
2022-12-28T00:51:29.052Z,4.85
2022-12-28T00:53:55.863Z,3.95
2022-12-28T00:56:23.222Z,4.72
2022-12-28T00:58:50.063Z,3.38
2022-12-28T01:01:22.101Z,4.50
2022-12-28T01:03:51.016Z,3.72
2022-12-28T01:06:19.733Z,3.92
2022-12-28T01:08:46.879Z,4.30
2022-12-28T01:11:27.118Z,3.63
2022-12-28T01:13:56.161Z,4.00
2022-12-28T01:16:35.374Z,4.55
2022-12-28T01:19:05.375Z,3.83
2022-12-28T01:21:34.243Z,4.18
2022-12-28T01:24:02.850Z,3.88
2022-12-28T01:26:31.921Z,8.85
2022-12-28T01:28:58.988Z,4.78
2022-12-28T01:31:26.157Z,3.75
2022-12-28T01:33:53.713Z,6.15
2022-12-28T01:36:23.968Z,3.60
2022-12-28T01:38:59.307Z,5.25
2022-12-28T01:41:28.408Z,4.10
2022-12-28T01:43:55.015Z,4.35
2022-12-28T01:46:36.382Z,3.97
2022-12-28T01:49:10.587Z,4.55
2022-12-28T01:51:46.389Z,3.50
2022-12-28T01:54:13.772Z,3.97
2022-12-28T01:56:42.683Z,3.45
2022-12-28T01:59:09.643Z,2.97
2022-12-28T02:01:37.072Z,3.35
2022-12-28T02:04:04.021Z,3.53
2022-12-28T02:06:31.793Z,2.55
2022-12-28T02:09:23.092Z,2.50
2022-12-28T02:11:50.637Z,3.28
2022-12-28T02:14:19.530Z,4.05
2022-12-28T02:16:46.458Z,2.83
2022-12-28T02:19:21.121Z,5.50
2022-12-28T02:22:32.809Z,4.25
2022-12-28T02:25:36.947Z,3.83
2022-12-28T02:28:28.931Z,3.05
2022-12-28T02:31:08.621Z,1.85
2022-12-28T02:33:58.677Z,12.52
2022-12-28T02:36:34.463Z,15.90
2022-12-28T02:39:14.314Z,13.05
2022-12-28T02:41:44.776Z,13.05
2022-12-28T02:44:11.917Z,13.73
2022-12-28T02:46:57.144Z,13.30
2022-12-28T02:49:46.993Z,18.30
2022-12-28T02:52:53.588Z,11.80
2022-12-28T02:56:05.633Z,4.75
2022-12-28T02:58:52.409Z,3.85
2022-12-28T03:01:36.009Z,3.33
2022-12-28T03:04:06.872Z,2.75
2022-12-28T03:06:59.335Z,4.13
2022-12-28T03:09:41.821Z,5.60
2022-12-28T03:12:19.718Z,4.53
2022-12-28T03:14:56.617Z,3.72
2022-12-28T03:17:48.679Z,3.85
2022-12-28T03:20:47.097Z,4.65
2022-12-28T03:23:36.303Z,2.90
2022-12-28T03:26:26.098Z,5.22
2022-12-28T03:29:13.564Z,3.72
2022-12-28T03:31:43.406Z,5.43
2022-12-28T03:34:14.577Z,6.28
2022-12-28T03:37:11.887Z,3.95
2022-12-28T03:39:47.738Z,4.78
2022-12-28T03:42:52.639Z,6.95
2022-12-28T03:45:46.457Z,4.40
2022-12-28T03:48:16.581Z,4.57
2022-12-28T03:50:47.011Z,5.68
2022-12-28T03:53:22.987Z,4.18
2022-12-28T03:55:52.509Z,3.40
2022-12-28T03:58:21.949Z,5.15
2022-12-28T04:00:49.736Z,4.18
2022-12-28T04:03:18.840Z,4.50
2022-12-28T04:05:45.524Z,4.47
2022-12-28T04:08:12.578Z,4.95
2022-12-28T04:10:39.334Z,5.80
2022-12-28T04:13:06.083Z,8.25
2022-12-28T04:16:11.092Z,5.87
2022-12-28T04:18:39.465Z,4.25
2022-12-28T04:21:06.349Z,4.38
2022-12-28T04:23:33.402Z,6.47
2022-12-28T04:26:17.996Z,5.78
2022-12-28T04:28:46.469Z,6.07
2022-12-28T04:31:42.393Z,5.53
2022-12-28T04:34:12.765Z,5.57
2022-12-28T04:36:45.447Z,6.25
2022-12-28T04:39:14.702Z,7.70
2022-12-28T04:41:41.409Z,7.97
2022-12-28T04:44:08.095Z,9.43
2022-12-28T04:46:34.837Z,8.73
2022-12-28T04:49:01.893Z,6.65
2022-12-28T04:51:30.094Z,7.30
2022-12-28T04:53:57.782Z,6.40
2022-12-28T04:56:26.227Z,8.25
2022-12-28T04:58:57.851Z,7.35
2022-12-28T05:01:25.184Z,8.32
2022-12-28T05:03:56.539Z,8.90
2022-12-28T05:06:25.809Z,7.88
2022-12-28T05:08:52.519Z,7.88
2022-12-28T05:11:21.535Z,8.25
2022-12-28T05:13:48.621Z,10.40
2022-12-28T05:16:19.218Z,6.32
2022-12-28T05:18:46.119Z,8.98
2022-12-28T05:21:24.666Z,8.55
2022-12-28T05:23:52.490Z,10.90
2022-12-28T05:26:22.053Z,9.98
2022-12-28T05:28:49.247Z,8.10
2022-12-28T05:31:21.784Z,9.13
2022-12-28T05:33:48.854Z,10.10
2022-12-28T05:36:18.352Z,10.32
2022-12-28T05:38:45.614Z,13.00
2022-12-28T05:41:13.470Z,11.40
2022-12-28T05:43:40.923Z,13.38
2022-12-28T05:46:10.778Z,10.90
2022-12-28T05:48:40.055Z,15.05
2022-12-28T05:51:09.601Z,12.38
2022-12-28T05:53:37.695Z,12.65
2022-12-28T05:56:16.358Z,12.02
2022-12-28T05:58:44.396Z,15.85
2022-12-28T06:01:16.690Z,25.27
2022-12-28T06:03:44.447Z,19.85
2022-12-28T06:06:14.517Z,14.68
2022-12-28T06:08:42.291Z,20.92
2022-12-28T06:11:12.698Z,19.17
2022-12-28T06:13:39.899Z,14.27
2022-12-28T06:16:14.983Z,14.60
2022-12-28T06:18:42.109Z,17.77
2022-12-28T06:21:15.051Z,23.13
2022-12-28T06:23:42.549Z,24.98
2022-12-28T06:26:11.936Z,24.30
2022-12-28T06:28:39.695Z,17.70
2022-12-28T06:31:12.540Z,21.58
2022-12-28T06:33:40.154Z,38.65
2022-12-28T06:36:20.588Z,18.85
2022-12-28T06:38:48.908Z,18.02
2022-12-28T06:41:17.636Z,15.80
2022-12-28T06:43:45.370Z,19.90
2022-12-28T06:46:13.224Z,27.38
2022-12-28T06:48:40.668Z,22.17
2022-12-28T06:51:18.835Z,14.90
2022-12-28T06:53:46.856Z,14.23
2022-12-28T06:56:16.781Z,12.02
2022-12-28T06:58:44.686Z,12.13
2022-12-28T07:01:18.208Z,12.23
2022-12-28T07:03:46.909Z,13.75
2022-12-28T07:06:16.146Z,13.70
2022-12-28T07:08:42.908Z,9.23
2022-12-28T07:11:12.772Z,8.02
2022-12-28T07:13:39.962Z,10.32
2022-12-28T07:16:15.902Z,8.68
2022-12-28T07:18:43.363Z,7.32
2022-12-28T07:21:21.395Z,10.00
2022-12-28T07:23:49.877Z,8.70
2022-12-28T07:26:21.744Z,8.07
2022-12-28T07:28:50.777Z,9.13
2022-12-28T07:31:20.216Z,7.75
2022-12-28T07:33:49.597Z,10.50
2022-12-28T07:36:19.523Z,7.63
2022-12-28T07:38:46.981Z,8.20
2022-12-28T07:41:19.974Z,7.50
2022-12-28T07:43:47.306Z,7.75
2022-12-28T07:46:22.495Z,9.05
2022-12-28T07:48:50.213Z,8.45
2022-12-28T07:51:23.031Z,9.75
2022-12-28T07:53:51.485Z,13.32
2022-12-28T07:56:19.541Z,9.20
2022-12-28T08:01:18.308Z,14.52
2022-12-28T08:03:45.631Z,11.70
2022-12-28T08:06:20.920Z,9.63
2022-12-28T08:08:49.748Z,10.00
2022-12-28T08:11:22.199Z,9.80
2022-12-28T08:16:18.742Z,8.43
2022-12-28T08:18:46.515Z,8.55
2022-12-28T08:21:19.638Z,10.48
2022-12-28T08:23:47.381Z,10.38
2022-12-28T08:26:24.433Z,9.45
2022-12-28T08:28:54.562Z,10.65
2022-12-28T08:31:23.992Z,8.68
2022-12-28T08:33:52.248Z,9.73
2022-12-28T08:36:18.961Z,9.95
2022-12-28T08:38:46.195Z,10.63
2022-12-28T08:41:17.034Z,10.15
2022-12-28T08:43:45.342Z,10.68
2022-12-28T08:46:15.091Z,10.63
2022-12-28T08:48:42.601Z,10.55
2022-12-28T08:51:17.479Z,11.10
2022-12-28T08:53:45.041Z,8.80
2022-12-28T08:56:14.357Z,8.48
2022-12-28T08:58:43.455Z,9.60
2022-12-28T09:01:20.619Z,8.48
2022-12-28T09:03:49.875Z,10.18
2022-12-28T09:06:18.812Z,7.00
2022-12-28T09:09:05.028Z,8.40
2022-12-28T09:11:34.944Z,9.88
2022-12-28T09:14:03.112Z,9.82
2022-12-28T09:16:30.578Z,7.63
2022-12-28T09:18:59.883Z,8.27
2022-12-28T09:21:29.999Z,9.70
2022-12-28T09:23:56.852Z,8.57
2022-12-28T09:26:26.491Z,9.43
2022-12-28T09:28:55.998Z,8.38
2022-12-28T09:31:25.358Z,8.20
2022-12-28T09:34:34.419Z,7.82
2022-12-28T09:36:45.676Z,8.30
2022-12-28T09:39:17.401Z,7.80
2022-12-28T09:42:02.274Z,7.80
2022-12-28T09:44:50.692Z,8.73
2022-12-28T09:47:32.599Z,10.48
2022-12-28T09:50:18.396Z,9.63
2022-12-28T09:52:50.035Z,6.07
2022-12-28T09:55:18.908Z,8.10
2022-12-28T09:57:49.911Z,6.55
2022-12-28T10:00:20.673Z,7.15
2022-12-28T10:02:52.865Z,7.55
2022-12-28T10:05:21.298Z,8.40
2022-12-28T10:07:48.017Z,6.72
2022-12-28T10:10:18.309Z,6.25
2022-12-28T10:12:45.934Z,6.70
2022-12-28T10:15:14.297Z,5.93
2022-12-28T10:17:41.520Z,6.80
2022-12-28T10:20:15.960Z,7.50
2022-12-28T10:22:49.697Z,5.68
2022-12-28T10:25:26.128Z,5.68
2022-12-28T10:27:53.647Z,5.78
2022-12-28T10:30:27.110Z,7.90
2022-12-28T10:33:02.555Z,7.53
2022-12-28T10:35:42.482Z,6.15
2022-12-28T10:38:30.645Z,7.50
2022-12-28T10:41:06.960Z,6.75
2022-12-28T10:43:36.985Z,7.05
2022-12-28T10:46:16.559Z,6.43
2022-12-28T10:48:48.476Z,7.13
2022-12-28T10:51:19.852Z,9.23
2022-12-28T10:53:49.454Z,7.07
2022-12-28T10:56:30.269Z,5.47
2022-12-28T10:59:24.161Z,5.32
2022-12-28T11:01:51.125Z,4.82
2022-12-28T11:04:21.289Z,7.38
2022-12-28T11:07:00.359Z,4.85
2022-12-28T11:09:28.107Z,5.32
2022-12-28T11:12:15.796Z,5.30
2022-12-28T11:14:42.534Z,4.60
2022-12-28T11:17:20.220Z,4.55
2022-12-28T11:19:49.580Z,4.03
2022-12-28T11:22:24.492Z,4.43
2022-12-28T11:24:51.556Z,5.43
2022-12-28T11:27:21.853Z,4.50
2022-12-28T11:29:51.676Z,3.38
2022-12-28T11:32:28.240Z,4.43
2022-12-28T11:34:56.451Z,6.68
2022-12-28T11:37:23.488Z,10.85
2022-12-28T11:39:52.706Z,4.97
2022-12-28T11:42:39.928Z,3.28
2022-12-28T11:45:16.552Z,2.90
2022-12-28T11:47:43.489Z,4.90
2022-12-28T11:50:42.304Z,3.72
2022-12-28T11:53:32.364Z,5.85
2022-12-28T11:56:09.708Z,3.50
2022-12-28T11:58:42.567Z,5.95
2022-12-28T12:01:33.722Z,3.65
2022-12-28T12:04:00.418Z,3.92
2022-12-28T12:06:42.582Z,4.13
2022-12-28T12:09:38.771Z,4.68
2022-12-28T12:12:17.720Z,6.07
2022-12-28T12:14:56.585Z,4.07
2022-12-28T12:17:43.209Z,3.50
2022-12-28T12:20:51.697Z,3.97
2022-12-28T12:23:34.365Z,3.42
2022-12-28T12:26:16.162Z,4.82
2022-12-28T12:28:50.179Z,5.45
2022-12-28T12:31:27.931Z,3.95
2022-12-28T12:34:04.140Z,2.38
2022-12-28T12:37:05.576Z,5.68
2022-12-28T12:40:06.582Z,3.63
2022-12-28T12:42:36.218Z,3.00
2022-12-28T12:45:16.219Z,4.72
2022-12-28T12:47:58.772Z,4.97
2022-12-28T12:53:33.180Z,4.43
2022-12-28T12:56:15.157Z,4.07
2022-12-28T12:58:47.853Z,3.47
2022-12-28T13:01:14.606Z,4.63
2022-12-28T13:03:47.421Z,4.20
2022-12-28T13:06:20.350Z,4.50
2022-12-28T13:08:48.904Z,6.82
2022-12-28T13:11:17.452Z,3.67
2022-12-28T13:13:47.061Z,2.35
2022-12-28T13:16:20.210Z,5.30
2022-12-28T13:18:57.561Z,2.95
2022-12-28T13:21:26.352Z,5.32
2022-12-28T13:23:53.556Z,3.97
2022-12-28T13:26:28.447Z,3.35
2022-12-28T13:29:03.559Z,3.88
2022-12-28T13:31:36.240Z,4.28
2022-12-28T13:34:15.068Z,4.38
2022-12-28T13:36:59.870Z,4.85
2022-12-28T13:39:34.206Z,3.70
2022-12-28T13:42:16.120Z,3.63
2022-12-28T13:44:51.115Z,5.35
2022-12-28T13:47:29.688Z,4.85
2022-12-28T13:50:08.393Z,7.00
2022-12-28T13:52:52.110Z,4.93
2022-12-28T13:55:27.319Z,3.03
2022-12-28T13:58:00.686Z,4.95
2022-12-28T14:00:29.217Z,3.65
2022-12-28T14:02:56.958Z,4.88
2022-12-28T14:05:29.481Z,6.20
2022-12-28T14:07:58.784Z,4.22
2022-12-28T14:10:26.692Z,3.03
2022-12-28T14:12:54.470Z,3.58
2022-12-28T14:15:22.114Z,4.90
2022-12-28T14:17:51.478Z,3.35
2022-12-28T14:20:18.286Z,3.92
2022-12-28T14:22:44.987Z,4.38
2022-12-28T14:25:14.625Z,5.40
2022-12-28T14:27:57.027Z,6.80
2022-12-28T14:30:31.759Z,6.28
2022-12-28T14:33:11.567Z,6.53
2022-12-28T14:35:49.523Z,4.90
2022-12-28T14:38:46.609Z,4.63
2022-12-28T14:41:27.881Z,4.80
2022-12-28T14:44:01.418Z,5.07
2022-12-28T14:46:30.942Z,3.85
2022-12-28T14:48:57.889Z,3.58
2022-12-28T14:51:32.308Z,4.47
2022-12-28T14:54:12.163Z,5.45
2022-12-28T14:56:39.737Z,4.25
2022-12-28T14:59:17.602Z,4.43
2022-12-28T15:01:47.008Z,6.60
2022-12-28T15:04:37.544Z,5.30
2022-12-28T15:07:11.950Z,4.88
2022-12-28T15:09:38.919Z,5.68
2022-12-28T15:12:18.212Z,2.72
2022-12-28T15:14:44.905Z,5.43
2022-12-28T15:17:11.745Z,5.13
2022-12-28T15:19:39.176Z,6.40
2022-12-28T15:22:06.134Z,4.95
2022-12-28T15:24:34.562Z,3.63
2022-12-28T15:27:02.824Z,5.45
2022-12-28T15:30:03.804Z,3.33
2022-12-28T15:32:16.682Z,6.57
2022-12-28T15:34:43.397Z,4.20
2022-12-28T15:37:10.058Z,6.20
2022-12-28T15:39:36.866Z,3.15
2022-12-28T15:42:03.656Z,4.03
2022-12-28T15:44:30.388Z,3.15
2022-12-28T15:46:57.178Z,3.53
2022-12-28T15:49:24.019Z,3.90
2022-12-28T15:51:51.148Z,2.83
2022-12-28T15:54:18.785Z,5.20
2022-12-28T15:56:52.662Z,2.42
2022-12-28T15:59:20.171Z,4.18
2022-12-28T16:01:47.527Z,3.83
2022-12-28T16:04:14.736Z,3.10
2022-12-28T16:06:44.626Z,3.20
2022-12-28T16:09:12.994Z,3.55
2022-12-28T16:11:40.595Z,3.78
2022-12-28T16:14:09.018Z,3.95
2022-12-28T16:16:38.491Z,4.18
2022-12-28T16:19:06.927Z,3.85
2022-12-28T16:21:34.043Z,3.22
2022-12-28T16:24:00.756Z,3.78
2022-12-28T16:26:28.165Z,4.78
2022-12-28T16:28:54.986Z,3.20
2022-12-28T16:31:28.471Z,3.72
2022-12-28T16:33:57.807Z,3.90
2022-12-28T16:36:25.102Z,4.03
2022-12-28T16:38:52.434Z,5.53
2022-12-28T16:41:19.463Z,3.38
2022-12-28T16:43:47.241Z,5.07
2022-12-28T16:46:14.272Z,4.25
2022-12-28T16:48:41.178Z,3.78
2022-12-28T16:51:08.159Z,5.55
2022-12-28T16:53:36.903Z,3.45
2022-12-28T16:56:05.475Z,4.22
2022-12-28T16:58:33.202Z,3.45
2022-12-28T17:01:07.377Z,4.70
2022-12-28T17:03:34.947Z,3.53
2022-12-28T17:06:02.131Z,5.28
2022-12-28T17:08:28.997Z,4.82
2022-12-28T17:10:55.760Z,4.57
2022-12-28T17:13:22.844Z,6.07
2022-12-28T17:15:50.321Z,4.93
2022-12-28T17:18:17.169Z,4.18
2022-12-28T17:20:45.437Z,5.05
2022-12-28T17:23:13.268Z,4.38
2022-12-28T17:25:40.074Z,6.32
2022-12-28T17:28:06.848Z,4.68
2022-12-28T17:30:33.989Z,5.28
2022-12-28T17:33:01.205Z,3.47
2022-12-28T17:35:27.868Z,5.38
2022-12-28T17:37:54.540Z,3.78
2022-12-28T17:40:21.322Z,3.90
2022-12-28T17:42:48.177Z,6.78
2022-12-28T17:45:15.039Z,6.40
2022-12-28T17:47:41.701Z,5.28
2022-12-28T17:50:08.983Z,3.78
2022-12-28T17:52:35.741Z,3.70
2022-12-28T17:55:03.598Z,4.97
2022-12-28T17:57:35.325Z,4.22
2022-12-28T18:00:06.599Z,3.45
2022-12-28T18:02:39.229Z,4.72
2022-12-28T18:05:06.600Z,4.57
2022-12-28T18:07:34.022Z,3.60
2022-12-28T18:10:00.767Z,3.65
2022-12-28T18:12:27.477Z,3.60
2022-12-28T18:14:54.235Z,3.08
2022-12-28T18:17:23.365Z,4.25
2022-12-28T18:19:53.433Z,4.78
2022-12-28T18:22:23.031Z,3.97
2022-12-28T18:24:50.751Z,6.05
2022-12-28T18:27:17.761Z,5.40
2022-12-28T18:29:45.319Z,5.28
2022-12-28T18:32:12.200Z,5.10
2022-12-28T18:34:39.707Z,5.25
2022-12-28T18:37:06.379Z,6.63
2022-12-28T18:39:33.856Z,6.40
2022-12-28T18:42:01.930Z,6.45
2022-12-28T18:44:28.752Z,10.90
2022-12-28T18:46:55.466Z,15.35
2022-12-28T18:49:22.177Z,9.05
2022-12-28T18:51:48.791Z,7.18
2022-12-28T18:54:15.501Z,5.70
2022-12-28T18:56:42.225Z,5.35
2022-12-28T18:59:08.875Z,5.35
2022-12-28T19:04:25.899Z,6.93
2022-12-28T19:06:52.674Z,8.02
2022-12-28T19:09:19.441Z,5.10
2022-12-28T19:11:46.147Z,7.32
2022-12-28T19:14:14.828Z,8.07
2022-12-28T19:16:42.838Z,10.57
2022-12-28T19:19:09.684Z,6.03
2022-12-28T19:21:39.013Z,6.40
2022-12-28T19:24:10.427Z,6.32
2022-12-28T19:26:37.090Z,5.10
2022-12-28T19:29:04.445Z,5.28
2022-12-28T19:31:31.968Z,4.20
2022-12-28T19:33:59.179Z,3.20
2022-12-28T19:36:26.126Z,3.10
2022-12-28T19:38:55.101Z,3.28
2022-12-28T19:41:21.985Z,3.92
2022-12-28T19:43:48.739Z,4.15
2022-12-28T19:46:21.758Z,4.85
2022-12-28T19:48:48.688Z,5.05
2022-12-28T19:51:15.498Z,3.00
2022-12-28T19:53:42.341Z,3.45
2022-12-28T19:56:17.028Z,4.18
2022-12-28T19:58:44.898Z,3.70
2022-12-28T20:01:21.273Z,5.18
2022-12-28T20:03:48.837Z,4.00
2022-12-28T20:06:22.365Z,4.40
2022-12-28T20:08:51.301Z,3.65
2022-12-28T20:11:19.077Z,3.45
2022-12-28T20:13:51.500Z,4.13
2022-12-28T20:18:46.842Z,3.92
2022-12-28T20:21:21.820Z,4.85
2022-12-28T20:23:49.867Z,4.53
2022-12-28T20:26:17.616Z,4.70
2022-12-28T20:28:44.824Z,6.95
2022-12-28T20:31:13.956Z,3.47
2022-12-28T20:33:41.869Z,5.63
2022-12-28T20:36:12.662Z,4.95
2022-12-28T20:38:39.418Z,3.60
2022-12-28T20:41:34.344Z,3.33
2022-12-28T20:44:06.962Z,3.00
2022-12-28T20:46:34.272Z,4.30
2022-12-28T20:49:01.129Z,5.78
2022-12-28T20:51:28.852Z,2.88
2022-12-28T20:53:55.697Z,4.70
2022-12-28T20:56:25.178Z,3.33
2022-12-28T20:58:51.870Z,4.18
2022-12-28T21:01:19.296Z,3.95
2022-12-28T21:03:46.838Z,4.30
2022-12-28T21:06:14.053Z,2.80
2022-12-28T21:08:40.863Z,3.03
2022-12-28T21:11:07.707Z,3.28
2022-12-28T21:13:36.904Z,3.47
2022-12-28T21:16:08.210Z,2.67
2022-12-28T21:18:35.707Z,4.82
2022-12-28T21:21:03.031Z,5.22
2022-12-28T21:23:30.808Z,5.05
2022-12-28T21:26:05.977Z,2.58
2022-12-28T21:28:34.132Z,1.75
2022-12-28T21:31:03.642Z,2.25
2022-12-28T21:33:31.212Z,1.80
2022-12-28T21:36:02.453Z,2.97
2022-12-28T21:38:29.882Z,2.83
2022-12-28T21:41:01.359Z,3.63
2022-12-28T21:43:28.944Z,2.37
2022-12-28T21:46:02.510Z,2.92
2022-12-28T21:48:34.131Z,2.25
2022-12-28T21:51:27.680Z,2.80
2022-12-28T21:53:55.265Z,2.88
2022-12-28T21:56:22.220Z,4.28
2022-12-28T21:58:50.066Z,1.65
2022-12-28T22:01:36.109Z,2.50
2022-12-28T22:04:21.546Z,2.17
2022-12-28T22:06:48.209Z,1.92
2022-12-28T22:09:33.548Z,2.03
2022-12-28T22:12:18.866Z,2.38
2022-12-28T22:14:45.524Z,2.03
2022-12-28T22:17:14.442Z,3.42
2022-12-28T22:19:41.642Z,2.63
2022-12-28T22:22:08.505Z,2.45
2022-12-28T22:24:35.462Z,3.00
2022-12-28T22:27:02.135Z,2.30
2022-12-28T22:29:28.992Z,3.08
2022-12-28T22:31:55.950Z,1.75
2022-12-28T22:34:22.643Z,3.40
2022-12-28T22:36:50.517Z,2.80
2022-12-28T22:39:17.194Z,2.47
2022-12-28T22:41:43.918Z,3.53
2022-12-28T22:44:10.859Z,2.35
2022-12-28T22:46:37.651Z,2.38
2022-12-28T22:49:04.493Z,2.70
2022-12-28T22:51:31.384Z,3.40
2022-12-28T22:53:58.271Z,2.63
2022-12-28T22:56:24.926Z,2.47
2022-12-28T22:58:51.758Z,2.35
2022-12-28T23:01:20.209Z,2.67
2022-12-28T23:03:48.201Z,2.45
2022-12-28T23:06:17.491Z,2.55
2022-12-28T23:08:44.961Z,2.13
2022-12-28T23:11:34.745Z,2.30
2022-12-28T23:14:24.353Z,2.10
2022-12-28T23:16:51.244Z,2.17
2022-12-28T23:19:50.075Z,2.40
2022-12-28T23:22:42.076Z,3.30
2022-12-28T23:25:34.281Z,2.53
2022-12-28T23:28:02.621Z,2.10
2022-12-28T23:30:29.648Z,2.63
2022-12-28T23:32:56.659Z,1.33
2022-12-28T23:35:25.476Z,2.17
2022-12-28T23:37:53.076Z,1.90
2022-12-28T23:40:21.529Z,3.03
2022-12-28T23:42:49.042Z,1.20
2022-12-28T23:45:17.822Z,1.88
2022-12-28T23:47:45.321Z,2.42
2022-12-28T23:50:14.213Z,4.10
2022-12-28T23:52:41.554Z,2.50
2022-12-28T23:55:10.156Z,2.83
2022-12-28T23:57:37.552Z,2.10
